Главная страница
METAR-TAF:

METAR-TAF

Аэропорты :

Чебоксары, Россия

широта: 56-05-24N, долгота: 047-20-50E, высота над уровнем моря: 171 м

Текущие метеонаблюдения

Эта сводка был подготовлена 42 минут назад, в 11:00 UTC
Ветер 10 Узел от западно-северо-западный
Температура 15°C
Влажность 51%
Давление 1020 hPa
Видимость 10 км и более
Нет облачности ниже 1500 м, и нет кучево-дождевой облачности

METAR: UWKS 161100Z 29005MPS CAVOK 15/05 Q1020 R24/010060 NOSIG RMK QFE751

Время: 14:42 (11:42 UTC)

Прогноз

Эта сводка был подготовлена 55 минут назад, в 10:47 UTC
Прогноз действительный с 16-го 12 UTC до 16-го 21 UTC
Ветер 10 Узел от западный с порывами до 19 Узел
Видимость 10 км и более
Отдельные облака на высоте 2000 фута

TAF: UWKS 161047Z 1612/1621 27005G10MPS 9999 SCT020

Метеонаблюдения и прогнозы для более 4000 аэропортов (сводки METAR и TAF).

Имеющиеся станции представлены на карте желтыми и красными точками.

Чтобы увидеть название станции, наведите на нее мышь.

Затем щелкните, чтобы увидеть метеонаблюдения и метеопрогнозы.

Управление картой: чтобы увеличить масштаб, щелкните зеленые кнопки с черным крестиком; чтобы уменьшить масштаб, щелкните зеленую кнопку с тире; для просмотра соседних карт щелкайте зеленые стрелки.


METAR-TAF: